Terminal Aerodrome Forecast
Issued by NWS Mt. Holly, NJ

Home | Current Version | Previous Version | Text Only | Print | Product List | Glossary On
Versions: 1 2 3 4 5 6 7 8 9 10 11 12 13 14 15 16 17 18 19 20 21 22 23 24 25 26 27 28 29 30 31 32 33 34
622
FTUS41 KPHI 060821 AAB
TAFPHL
TAF AMD
KPHL 060821Z 0608/0712 06005KT P6SM -RA OVC020
      TEMPO 0608/0610 4SM RA BKN015
     FM061000 04012G18KT 4SM RA BR OVC009
     FM061600 04010KT 5SM -RA BR OVC009
     FM070600 VRB03KT 4SM BR VCSH OVC008=

USA.gov is the U.S. government's official web portal to all federal, state and local government web resources and services.